Volcan De Tamasite — ECFE — position and weather

sailwx.info

Track history (hours):
 
Tides and Currents Weather Stations Pressure Air Temp Water Temp Dewpoint Dewpoint Depression Visibility Wind Speed Wind Dir Waves Ship Positions

Volcan De Tamasite

Last reported at 2015-May-19 06:34 UTC. Time now 2015-May-22 14:41 UTC.
Position N 35°22' W 002°51'.

Length 141 m; draft 5.3 m.

Type: Passenger vessel. MMSI: 224093000.

Date/timePositionNaut miles runAvg speedWind from/ knotsBaromVisibWave heightAir tempDewpointWater temp
2015-May-19 06:34N 35°22' W 002°51'23 1.6
2015-May-18 16:10N 35°43' W 003°02'  
2015-May-15 11:12N 36°03' W 005°09'1522.9
2015-May-15 10:32N 35°57' W 005°26'12018.4
2015-May-15 04:03N 34°43' W 007°22'1118.9
2015-May-15 03:29N 34°35' W 007°31'1819.0
2015-May-15 02:32N 34°24' W 007°47'2718.4
2015-May-15 01:05N 34°05' W 008°11'1018.4
2015-May-15 00:33N 33°59' W 008°19'2018.1
2015-May-14 23:26N 33°44' W 008°37'7618.0
2015-May-14 19:11N 32°52' W 009°43'1117.7
2015-May-14 18:33N 32°44' W 009°53'12918.1
2015-May-14 11:26N 31°14' W 011°41'6018.5
2015-May-14 08:12N 30°33' W 012°31'1618.5
2015-May-14 07:20N 30°21' W 012°44'2318.1
2015-May-14 06:05N 30°06' W 013°03'1018.6
2015-May-14 05:33N 29°59' W 013°12'2218.5
2015-May-14 04:20N 29°44' W 013°31'2318.4
2015-May-14 03:07N 29°28' W 013°49'  
2015-May-11 17:06N 28°24' W 016°01'1219.5
2015-May-11 16:30N 28°20' W 015°49'2219.2
2015-May-11 15:20N 28°12' W 015°25'  
Track history (hours):
 
Tides and Currents Weather Stations Pressure Air Temp Water Temp Dewpoint Dewpoint Depression Visibility Wind Speed Wind Dir Waves Ship Positions

Volcan De Tamasite

Last reported at 2015-May-19 06:34 UTC. Time now 2015-May-22 14:41 UTC.
Position N 35°22' W 002°51'.

Length 141 m; draft 5.3 m.

Type: Passenger vessel. MMSI: 224093000.

Date/timePositionNaut miles runAvg speedWind from/ knotsBaromVisibWave heightAir tempDewpointWater temp
2015-May-19 06:34N 35°22' W 002°51'23 1.6
2015-May-18 16:10N 35°43' W 003°02'  
2015-May-15 11:12N 36°03' W 005°09'1522.9
2015-May-15 10:32N 35°57' W 005°26'12018.4
2015-May-15 04:03N 34°43' W 007°22'1118.9
2015-May-15 03:29N 34°35' W 007°31'1819.0
2015-May-15 02:32N 34°24' W 007°47'2718.4
2015-May-15 01:05N 34°05' W 008°11'1018.4
2015-May-15 00:33N 33°59' W 008°19'2018.1
2015-May-14 23:26N 33°44' W 008°37'7618.0
2015-May-14 19:11N 32°52' W 009°43'1117.7
2015-May-14 18:33N 32°44' W 009°53'12918.1
2015-May-14 11:26N 31°14' W 011°41'6018.5
2015-May-14 08:12N 30°33' W 012°31'1618.5
2015-May-14 07:20N 30°21' W 012°44'2318.1
2015-May-14 06:05N 30°06' W 013°03'1018.6
2015-May-14 05:33N 29°59' W 013°12'2218.5
2015-May-14 04:20N 29°44' W 013°31'2318.4
2015-May-14 03:07N 29°28' W 013°49'  
2015-May-11 17:06N 28°24' W 016°01'1219.5
2015-May-11 16:30N 28°20' W 015°49'2219.2
2015-May-11 15:20N 28°12' W 015°25'  

Dump ship's entire track history